Mercurius — 5BCU3 — position and weather

sailwx.info

Track history (hours):
 
Tides and Currents Weather Stations Pressure Air Temp Water Temp Dewpoint Dewpoint Depression Visibility Wind Speed Wind Dir Waves Ship Positions

Mercurius

Last reported at 2018-Feb-24 15:33 UTC. Time now 2018-Feb-26 02:08 UTC.
Position N 40°59' E 028°60'.

Length 180 m; draft 9.9 m.

Type: Cargo ship. MMSI: 209532000.

Date/timePositionNaut miles runAvg speedWind from/ knotsBaromVisibWave heightAir tempDewpointWater temp
2018-Feb-24 15:33N 40°59' E 028°60'7 7.6
2018-Feb-24 14:40N 40°53' E 028°55'2 9.6
2018-Feb-24 14:28N 40°52' E 028°53'  
2018-Feb-15 22:51N 29°07' W 012°31'613.6
2018-Feb-15 22:23N 29°01' W 012°35'513.5
2018-Feb-15 22:00N 28°57' W 012°39'713.5
2018-Feb-15 21:27N 28°51' W 012°43'713.3
2018-Feb-15 20:57N 28°45' W 012°47'612.9
2018-Feb-15 20:29N 28°40' W 012°51'713.2
2018-Feb-15 19:58N 28°34' W 012°55'613.2
2018-Feb-15 19:30N 28°29' W 012°59'713.2
2018-Feb-15 18:59N 28°23' W 013°03'613.1
2018-Feb-15 18:30N 28°18' W 013°07'713.1
2018-Feb-15 17:59N 28°12' W 013°11'613.2
2018-Feb-15 17:30N 28°07' W 013°15'713.3
2018-Feb-15 16:59N 28°01' W 013°19'913.0
2018-Feb-15 16:17N 27°54' W 013°25'412.8
2018-Feb-15 16:00N 27°51' W 013°28'612.8
2018-Feb-15 15:30N 27°46' W 013°32'613.0
2018-Feb-15 15:00N 27°41' W 013°37'612.8
2018-Feb-15 14:30N 27°35' W 013°40'713.3
2018-Feb-15 14:00N 27°29' W 013°43'713.5
2018-Feb-15 13:30N 27°23' W 013°47'713.2
2018-Feb-15 13:00N 27°18' W 013°51'913.4
2018-Feb-15 12:18N 27°11' W 013°59'413.5
2018-Feb-15 12:00N 27°09' W 014°02'713.3
2018-Feb-15 11:30N 27°05' W 014°08'713.1
2018-Feb-15 11:00N 26°60' W 014°13'713.4
2018-Feb-15 10:30N 26°55' W 014°18'713.4
2018-Feb-15 10:00N 26°49' W 014°22'813.1
2018-Feb-15 09:22N 26°43' W 014°28'7612.9
2018-Feb-15 03:29N 25°42' W 015°18'612.8
2018-Feb-15 02:58N 25°36' W 015°22'  
Track history (hours):
 
Tides and Currents Weather Stations Pressure Air Temp Water Temp Dewpoint Dewpoint Depression Visibility Wind Speed Wind Dir Waves Ship Positions

Mercurius

Last reported at 2018-Feb-24 15:33 UTC. Time now 2018-Feb-26 02:08 UTC.
Position N 40°59' E 028°60'.

Length 180 m; draft 9.9 m.

Type: Cargo ship. MMSI: 209532000.

Date/timePositionNaut miles runAvg speedWind from/ knotsBaromVisibWave heightAir tempDewpointWater temp
2018-Feb-24 15:33N 40°59' E 028°60'7 7.6
2018-Feb-24 14:40N 40°53' E 028°55'2 9.6
2018-Feb-24 14:28N 40°52' E 028°53'  
2018-Feb-15 22:51N 29°07' W 012°31'613.6
2018-Feb-15 22:23N 29°01' W 012°35'513.5
2018-Feb-15 22:00N 28°57' W 012°39'713.5
2018-Feb-15 21:27N 28°51' W 012°43'713.3
2018-Feb-15 20:57N 28°45' W 012°47'612.9
2018-Feb-15 20:29N 28°40' W 012°51'713.2
2018-Feb-15 19:58N 28°34' W 012°55'613.2
2018-Feb-15 19:30N 28°29' W 012°59'713.2
2018-Feb-15 18:59N 28°23' W 013°03'613.1
2018-Feb-15 18:30N 28°18' W 013°07'713.1
2018-Feb-15 17:59N 28°12' W 013°11'613.2
2018-Feb-15 17:30N 28°07' W 013°15'713.3
2018-Feb-15 16:59N 28°01' W 013°19'913.0
2018-Feb-15 16:17N 27°54' W 013°25'412.8
2018-Feb-15 16:00N 27°51' W 013°28'612.8
2018-Feb-15 15:30N 27°46' W 013°32'613.0
2018-Feb-15 15:00N 27°41' W 013°37'612.8
2018-Feb-15 14:30N 27°35' W 013°40'713.3
2018-Feb-15 14:00N 27°29' W 013°43'713.5
2018-Feb-15 13:30N 27°23' W 013°47'713.2
2018-Feb-15 13:00N 27°18' W 013°51'913.4
2018-Feb-15 12:18N 27°11' W 013°59'413.5
2018-Feb-15 12:00N 27°09' W 014°02'713.3
2018-Feb-15 11:30N 27°05' W 014°08'713.1
2018-Feb-15 11:00N 26°60' W 014°13'713.4
2018-Feb-15 10:30N 26°55' W 014°18'713.4
2018-Feb-15 10:00N 26°49' W 014°22'813.1
2018-Feb-15 09:22N 26°43' W 014°28'7612.9
2018-Feb-15 03:29N 25°42' W 015°18'612.8
2018-Feb-15 02:58N 25°36' W 015°22'  

Dump ship's entire track history